AL30 weather

Rocky Springs Airpark
Bremen, Alabama, United States

Public forecast

Using degrees Fahrenheit for public forecast. Weather courtesy of forecast.io.

Closest aviation weather report (METAR) to Rocky Springs Airpark

Closest report is Walker County Airport-Bevill Field, 12.9 nm (23.9 km) WSW. Retrieved 2019/10/23 22:35 UTC (0 seconds ago):

KJFX 232235Z AUTO 8SM CLR 19/06 A3016 RMK AO2

Closest aviation forecast (TAF) to Rocky Springs Airpark

Closest forecast is Birmingham-Shuttlesworth International Airport, 30.2 nm (56.0 km) SSE. Retrieved 2019/10/23 18:22 UTC (4 hours ago):

TAF KBHM 231720Z 2318/2418 02004KT P6SM SKC